sensor_id;sensor_type;location;lat;lon;timestamp;P1;durP1;ratioP1;P2;durP2;ratioP2
22034;SDS011;11181;51.002;4.356;2023-08-06T00:00:56;1.67;;;1.50;;
22034;SDS011;11181;51.002;4.356;2023-08-06T00:03:23;2.97;;;1.60;;
22034;SDS011;11181;51.002;4.356;2023-08-06T00:05:50;3.33;;;1.57;;
22034;SDS011;11181;51.002;4.356;2023-08-06T00:08:17;2.30;;;1.50;;
22034;SDS011;11181;51.002;4.356;2023-08-06T00:10:46;4.50;;;1.80;;
22034;SDS011;11181;51.002;4.356;2023-08-06T00:13:13;3.93;;;1.93;;
22034;SDS011;11181;51.002;4.356;2023-08-06T00:15:40;3.73;;;1.80;;
22034;SDS011;11181;51.002;4.356;2023-08-06T00:18:07;1.77;;;1.47;;
22034;SDS011;11181;51.002;4.356;2023-08-06T00:20:34;2.00;;;1.70;;
22034;SDS011;11181;51.002;4.356;2023-08-06T00:23:01;2.73;;;2.13;;
22034;SDS011;11181;51.002;4.356;2023-08-06T00:25:28;2.97;;;1.70;;
22034;SDS011;11181;51.002;4.356;2023-08-06T00:27:56;4.30;;;1.90;;
22034;SDS011;11181;51.002;4.356;2023-08-06T00:30:23;2.00;;;1.80;;
22034;SDS011;11181;51.002;4.356;2023-08-06T00:32:50;12.10;;;2.23;;
22034;SDS011;11181;51.002;4.356;2023-08-06T00:35:17;3.67;;;2.20;;
22034;SDS011;11181;51.002;4.356;2023-08-06T00:37:43;3.10;;;1.90;;
22034;SDS011;11181;51.002;4.356;2023-08-06T00:40:10;9.00;;;1.93;;
22034;SDS011;11181;51.002;4.356;2023-08-06T00:42:37;5.47;;;1.80;;
22034;SDS011;11181;51.002;4.356;2023-08-06T00:45:06;2.53;;;1.93;;
22034;SDS011;11181;51.002;4.356;2023-08-06T00:47:33;3.23;;;2.07;;
22034;SDS011;11181;51.002;4.356;2023-08-06T00:50:00;4.03;;;1.90;;
22034;SDS011;11181;51.002;4.356;2023-08-06T00:52:27;2.47;;;1.97;;
22034;SDS011;11181;51.002;4.356;2023-08-06T00:54:54;3.87;;;2.10;;
22034;SDS011;11181;51.002;4.356;2023-08-06T00:57:21;4.70;;;2.77;;
22034;SDS011;11181;51.002;4.356;2023-08-06T00:59:51;4.27;;;2.10;;
22034;SDS011;11181;51.002;4.356;2023-08-06T01:02:21;2.43;;;2.23;;
22034;SDS011;11181;51.002;4.356;2023-08-06T01:04:48;2.30;;;1.80;;
22034;SDS011;11181;51.002;4.356;2023-08-06T01:07:18;4.20;;;2.40;;
22034;SDS011;11181;51.002;4.356;2023-08-06T01:09:55;6.27;;;2.57;;
22034;SDS011;11181;51.002;4.356;2023-08-06T01:12:43;3.53;;;2.87;;
22034;SDS011;11181;51.002;4.356;2023-08-06T01:15:17;6.97;;;2.93;;
22034;SDS011;11181;51.002;4.356;2023-08-06T01:17:49;3.13;;;2.43;;
22034;SDS011;11181;51.002;4.356;2023-08-06T01:20:16;2.63;;;2.27;;
22034;SDS011;11181;51.002;4.356;2023-08-06T01:22:45;3.03;;;2.40;;
22034;SDS011;11181;51.002;4.356;2023-08-06T01:25:12;3.57;;;2.70;;
22034;SDS011;11181;51.002;4.356;2023-08-06T01:27:43;5.77;;;3.00;;
22034;SDS011;11181;51.002;4.356;2023-08-06T01:30:15;4.57;;;3.00;;
22034;SDS011;11181;51.002;4.356;2023-08-06T01:32:49;3.93;;;3.10;;
22034;SDS011;11181;51.002;4.356;2023-08-06T01:35:19;3.07;;;2.63;;
22034;SDS011;11181;51.002;4.356;2023-08-06T01:37:49;5.00;;;3.13;;
22034;SDS011;11181;51.002;4.356;2023-08-06T01:40:16;5.23;;;3.90;;
22034;SDS011;11181;51.002;4.356;2023-08-06T01:42:43;3.77;;;3.00;;
22034;SDS011;11181;51.002;4.356;2023-08-06T01:45:10;6.10;;;3.87;;
22034;SDS011;11181;51.002;4.356;2023-08-06T01:47:37;5.57;;;3.10;;
22034;SDS011;11181;51.002;4.356;2023-08-06T01:50:04;4.10;;;3.03;;
22034;SDS011;11181;51.002;4.356;2023-08-06T01:52:31;5.40;;;3.23;;
22034;SDS011;11181;51.002;4.356;2023-08-06T01:54:59;3.43;;;2.90;;
22034;SDS011;11181;51.002;4.356;2023-08-06T01:57:26;5.07;;;3.30;;
22034;SDS011;11181;51.002;4.356;2023-08-06T01:59:53;3.83;;;3.50;;
22034;SDS011;11181;51.002;4.356;2023-08-06T02:02:20;3.37;;;2.77;;
22034;SDS011;11181;51.002;4.356;2023-08-06T02:04:47;5.30;;;3.83;;
22034;SDS011;11181;51.002;4.356;2023-08-06T02:07:14;6.03;;;3.73;;
22034;SDS011;11181;51.002;4.356;2023-08-06T02:09:40;6.73;;;4.70;;
22034;SDS011;11181;51.002;4.356;2023-08-06T02:12:09;7.10;;;4.97;;
22034;SDS011;11181;51.002;4.356;2023-08-06T02:14:36;5.37;;;3.93;;
22034;SDS011;11181;51.002;4.356;2023-08-06T02:17:03;9.77;;;5.33;;
22034;SDS011;11181;51.002;4.356;2023-08-06T02:19:29;8.97;;;4.53;;
22034;SDS011;11181;51.002;4.356;2023-08-06T02:21:56;6.20;;;4.43;;
22034;SDS011;11181;51.002;4.356;2023-08-06T02:24:23;6.03;;;4.20;;
22034;SDS011;11181;51.002;4.356;2023-08-06T02:26:50;10.27;;;5.40;;
22034;SDS011;11181;51.002;4.356;2023-08-06T02:29:22;6.80;;;5.07;;
22034;SDS011;11181;51.002;4.356;2023-08-06T02:31:49;5.80;;;4.70;;
22034;SDS011;11181;51.002;4.356;2023-08-06T02:34:15;5.53;;;4.43;;
22034;SDS011;11181;51.002;4.356;2023-08-06T02:36:42;6.97;;;4.67;;
22034;SDS011;11181;51.002;4.356;2023-08-06T02:39:09;6.20;;;4.50;;
22034;SDS011;11181;51.002;4.356;2023-08-06T02:41:36;5.50;;;4.63;;
22034;SDS011;11181;51.002;4.356;2023-08-06T02:44:03;8.43;;;4.80;;
22034;SDS011;11181;51.002;4.356;2023-08-06T02:46:31;10.80;;;5.07;;
22034;SDS011;11181;51.002;4.356;2023-08-06T02:48:58;9.97;;;5.00;;
22034;SDS011;11181;51.002;4.356;2023-08-06T02:51:25;7.23;;;5.47;;
22034;SDS011;11181;51.002;4.356;2023-08-06T02:53:52;7.93;;;4.67;;
22034;SDS011;11181;51.002;4.356;2023-08-06T02:56:19;5.87;;;4.90;;
22034;SDS011;11181;51.002;4.356;2023-08-06T02:58:46;9.63;;;5.50;;
22034;SDS011;11181;51.002;4.356;2023-08-06T03:01:13;9.33;;;5.53;;
22034;SDS011;11181;51.002;4.356;2023-08-06T03:03:41;6.10;;;5.13;;
22034;SDS011;11181;51.002;4.356;2023-08-06T03:06:08;9.37;;;5.10;;
22034;SDS011;11181;51.002;4.356;2023-08-06T03:08:34;9.30;;;5.43;;
22034;SDS011;11181;51.002;4.356;2023-08-06T03:11:02;8.10;;;6.27;;
22034;SDS011;11181;51.002;4.356;2023-08-06T03:13:28;8.90;;;6.07;;
22034;SDS011;11181;51.002;4.356;2023-08-06T03:15:56;10.23;;;6.63;;
22034;SDS011;11181;51.002;4.356;2023-08-06T03:18:24;13.50;;;5.90;;
22034;SDS011;11181;51.002;4.356;2023-08-06T03:20:52;11.13;;;6.30;;
22034;SDS011;11181;51.002;4.356;2023-08-06T03:23:19;8.37;;;5.97;;
22034;SDS011;11181;51.002;4.356;2023-08-06T03:25:46;10.50;;;5.97;;
22034;SDS011;11181;51.002;4.356;2023-08-06T03:28:13;8.60;;;6.00;;
22034;SDS011;11181;51.002;4.356;2023-08-06T03:30:40;11.17;;;6.67;;
22034;SDS011;11181;51.002;4.356;2023-08-06T03:33:07;11.90;;;5.90;;
22034;SDS011;11181;51.002;4.356;2023-08-06T03:35:34;10.63;;;6.30;;
22034;SDS011;11181;51.002;4.356;2023-08-06T03:38:02;10.20;;;5.97;;
22034;SDS011;11181;51.002;4.356;2023-08-06T03:40:29;7.30;;;5.97;;
22034;SDS011;11181;51.002;4.356;2023-08-06T03:42:56;8.27;;;6.13;;
22034;SDS011;11181;51.002;4.356;2023-08-06T03:45:23;7.47;;;4.83;;
22034;SDS011;11181;51.002;4.356;2023-08-06T03:47:50;6.83;;;5.20;;
22034;SDS011;11181;51.002;4.356;2023-08-06T03:50:17;6.23;;;5.00;;
22034;SDS011;11181;51.002;4.356;2023-08-06T03:52:43;6.90;;;5.17;;
22034;SDS011;11181;51.002;4.356;2023-08-06T03:55:12;8.90;;;4.83;;
22034;SDS011;11181;51.002;4.356;2023-08-06T03:57:39;6.00;;;4.07;;
22034;SDS011;11181;51.002;4.356;2023-08-06T04:00:06;5.03;;;3.53;;
22034;SDS011;11181;51.002;4.356;2023-08-06T04:02:34;2.67;;;2.40;;
22034;SDS011;11181;51.002;4.356;2023-08-06T04:05:01;1.93;;;1.43;;
22034;SDS011;11181;51.002;4.356;2023-08-06T04:07:27;4.73;;;1.50;;
22034;SDS011;11181;51.002;4.356;2023-08-06T04:09:55;1.27;;;1.17;;
22034;SDS011;11181;51.002;4.356;2023-08-06T04:12:24;0.90;;;0.70;;
22034;SDS011;11181;51.002;4.356;2023-08-06T04:14:52;1.10;;;0.70;;
22034;SDS011;11181;51.002;4.356;2023-08-06T04:17:19;1.37;;;0.80;;
22034;SDS011;11181;51.002;4.356;2023-08-06T04:19:47;2.10;;;0.70;;
22034;SDS011;11181;51.002;4.356;2023-08-06T04:22:15;1.70;;;1.00;;
22034;SDS011;11181;51.002;4.356;2023-08-06T04:24:42;3.57;;;1.60;;
22034;SDS011;11181;51.002;4.356;2023-08-06T04:27:09;4.33;;;1.87;;
22034;SDS011;11181;51.002;4.356;2023-08-06T04:29:38;2.50;;;1.90;;
22034;SDS011;11181;51.002;4.356;2023-08-06T04:32:05;4.27;;;2.20;;
22034;SDS011;11181;51.002;4.356;2023-08-06T04:34:33;2.90;;;2.10;;
22034;SDS011;11181;51.002;4.356;2023-08-06T04:37:01;5.17;;;2.53;;
22034;SDS011;11181;51.002;4.356;2023-08-06T04:39:28;5.17;;;2.33;;
22034;SDS011;11181;51.002;4.356;2023-08-06T04:41:55;6.97;;;3.03;;
22034;SDS011;11181;51.002;4.356;2023-08-06T04:44:23;5.67;;;2.80;;
22034;SDS011;11181;51.002;4.356;2023-08-06T04:46:51;6.87;;;2.93;;
22034;SDS011;11181;51.002;4.356;2023-08-06T04:49:19;8.93;;;3.30;;
22034;SDS011;11181;51.002;4.356;2023-08-06T04:51:46;11.00;;;4.00;;
22034;SDS011;11181;51.002;4.356;2023-08-06T04:54:13;5.70;;;3.50;;
22034;SDS011;11181;51.002;4.356;2023-08-06T04:56:40;7.27;;;3.40;;
22034;SDS011;11181;51.002;4.356;2023-08-06T04:59:07;6.03;;;3.07;;
22034;SDS011;11181;51.002;4.356;2023-08-06T05:01:34;3.67;;;2.40;;
22034;SDS011;11181;51.002;4.356;2023-08-06T05:04:03;4.77;;;3.20;;
22034;SDS011;11181;51.002;4.356;2023-08-06T05:06:30;3.87;;;2.47;;
22034;SDS011;11181;51.002;4.356;2023-08-06T05:08:57;5.70;;;2.90;;
22034;SDS011;11181;51.002;4.356;2023-08-06T05:11:24;4.83;;;2.40;;
22034;SDS011;11181;51.002;4.356;2023-08-06T05:13:51;5.53;;;2.23;;
22034;SDS011;11181;51.002;4.356;2023-08-06T05:16:17;3.53;;;2.30;;
22034;SDS011;11181;51.002;4.356;2023-08-06T05:18:44;5.60;;;2.60;;
22034;SDS011;11181;51.002;4.356;2023-08-06T05:21:13;6.70;;;2.13;;
22034;SDS011;11181;51.002;4.356;2023-08-06T05:23:41;6.30;;;2.30;;
22034;SDS011;11181;51.002;4.356;2023-08-06T05:26:08;3.77;;;2.40;;
22034;SDS011;11181;51.002;4.356;2023-08-06T05:28:35;4.90;;;2.63;;
22034;SDS011;11181;51.002;4.356;2023-08-06T05:31:03;6.40;;;2.33;;
22034;SDS011;11181;51.002;4.356;2023-08-06T05:33:30;6.47;;;2.77;;
22034;SDS011;11181;51.002;4.356;2023-08-06T05:35:57;6.03;;;2.60;;
22034;SDS011;11181;51.002;4.356;2023-08-06T05:38:25;5.70;;;1.97;;
22034;SDS011;11181;51.002;4.356;2023-08-06T05:40:52;6.83;;;2.20;;
22034;SDS011;11181;51.002;4.356;2023-08-06T05:43:20;5.57;;;2.43;;
22034;SDS011;11181;51.002;4.356;2023-08-06T05:45:48;5.80;;;2.53;;
22034;SDS011;11181;51.002;4.356;2023-08-06T05:48:15;5.67;;;1.80;;
22034;SDS011;11181;51.002;4.356;2023-08-06T05:50:42;6.30;;;2.30;;
22034;SDS011;11181;51.002;4.356;2023-08-06T05:53:09;5.93;;;2.60;;
22034;SDS011;11181;51.002;4.356;2023-08-06T05:55:38;6.00;;;2.47;;
22034;SDS011;11181;51.002;4.356;2023-08-06T05:58:05;5.87;;;2.33;;
22034;SDS011;11181;51.002;4.356;2023-08-06T06:00:32;5.77;;;2.40;;
22034;SDS011;11181;51.002;4.356;2023-08-06T06:03:00;9.60;;;2.30;;
22034;SDS011;11181;51.002;4.356;2023-08-06T06:05:27;8.23;;;2.47;;
22034;SDS011;11181;51.002;4.356;2023-08-06T06:07:54;3.93;;;2.00;;
22034;SDS011;11181;51.002;4.356;2023-08-06T06:10:20;4.50;;;2.13;;
22034;SDS011;11181;51.002;4.356;2023-08-06T06:12:49;6.43;;;2.53;;
22034;SDS011;11181;51.002;4.356;2023-08-06T06:15:16;8.00;;;2.53;;
22034;SDS011;11181;51.002;4.356;2023-08-06T06:17:43;4.70;;;2.30;;
22034;SDS011;11181;51.002;4.356;2023-08-06T06:20:10;4.47;;;2.07;;
22034;SDS011;11181;51.002;4.356;2023-08-06T06:22:39;5.80;;;2.13;;
22034;SDS011;11181;51.002;4.356;2023-08-06T06:25:14;4.90;;;2.30;;
22034;SDS011;11181;51.002;4.356;2023-08-06T06:27:41;4.83;;;2.33;;
22034;SDS011;11181;51.002;4.356;2023-08-06T06:30:10;6.20;;;2.80;;
22034;SDS011;11181;51.002;4.356;2023-08-06T06:32:38;7.87;;;2.20;;
22034;SDS011;11181;51.002;4.356;2023-08-06T06:35:06;7.30;;;2.63;;
22034;SDS011;11181;51.002;4.356;2023-08-06T06:37:33;4.30;;;2.30;;
22034;SDS011;11181;51.002;4.356;2023-08-06T06:40:00;8.33;;;2.70;;
22034;SDS011;11181;51.002;4.356;2023-08-06T06:42:27;7.13;;;2.20;;
22034;SDS011;11181;51.002;4.356;2023-08-06T06:44:54;8.30;;;2.47;;
22034;SDS011;11181;51.002;4.356;2023-08-06T06:47:22;6.03;;;2.63;;
22034;SDS011;11181;51.002;4.356;2023-08-06T06:49:49;4.33;;;2.67;;
22034;SDS011;11181;51.002;4.356;2023-08-06T06:52:16;8.50;;;2.83;;
22034;SDS011;11181;51.002;4.356;2023-08-06T06:54:43;7.13;;;3.00;;
22034;SDS011;11181;51.002;4.356;2023-08-06T06:57:10;8.37;;;2.30;;
22034;SDS011;11181;51.002;4.356;2023-08-06T06:59:37;6.37;;;2.50;;
22034;SDS011;11181;51.002;4.356;2023-08-06T07:02:04;6.40;;;2.10;;
22034;SDS011;11181;51.002;4.356;2023-08-06T07:04:33;8.13;;;1.93;;
22034;SDS011;11181;51.002;4.356;2023-08-06T07:07:00;4.37;;;2.00;;
22034;SDS011;11181;51.002;4.356;2023-08-06T07:09:27;7.63;;;1.50;;
22034;SDS011;11181;51.002;4.356;2023-08-06T07:11:54;6.70;;;2.30;;
22034;SDS011;11181;51.002;4.356;2023-08-06T07:14:21;4.50;;;1.83;;
22034;SDS011;11181;51.002;4.356;2023-08-06T07:16:47;4.30;;;1.53;;
22034;SDS011;11181;51.002;4.356;2023-08-06T07:19:14;3.97;;;1.27;;
22034;SDS011;11181;51.002;4.356;2023-08-06T07:21:42;8.33;;;1.43;;
22034;SDS011;11181;51.002;4.356;2023-08-06T07:24:09;8.60;;;1.93;;
22034;SDS011;11181;51.002;4.356;2023-08-06T07:26:36;8.33;;;1.37;;
22034;SDS011;11181;51.002;4.356;2023-08-06T07:29:03;6.87;;;1.17;;
22034;SDS011;11181;51.002;4.356;2023-08-06T07:31:30;6.37;;;1.57;;
22034;SDS011;11181;51.002;4.356;2023-08-06T07:33:57;13.17;;;1.90;;
22034;SDS011;11181;51.002;4.356;2023-08-06T07:36:24;4.27;;;1.40;;
22034;SDS011;11181;51.002;4.356;2023-08-06T07:38:52;8.60;;;2.17;;
22034;SDS011;11181;51.002;4.356;2023-08-06T07:41:21;4.47;;;1.23;;
22034;SDS011;11181;51.002;4.356;2023-08-06T07:43:48;6.17;;;1.80;;
22034;SDS011;11181;51.002;4.356;2023-08-06T07:46:15;8.33;;;1.70;;
22034;SDS011;11181;51.002;4.356;2023-08-06T07:48:42;7.23;;;1.50;;
22034;SDS011;11181;51.002;4.356;2023-08-06T07:51:09;9.33;;;1.50;;
22034;SDS011;11181;51.002;4.356;2023-08-06T07:53:36;9.50;;;1.50;;
22034;SDS011;11181;51.002;4.356;2023-08-06T07:56:04;8.77;;;1.37;;
22034;SDS011;11181;51.002;4.356;2023-08-06T07:58:31;8.23;;;2.10;;
22034;SDS011;11181;51.002;4.356;2023-08-06T08:00:58;9.40;;;2.40;;
22034;SDS011;11181;51.002;4.356;2023-08-06T08:03:25;8.47;;;1.47;;
22034;SDS011;11181;51.002;4.356;2023-08-06T08:05:54;5.73;;;1.30;;
22034;SDS011;11181;51.002;4.356;2023-08-06T08:08:23;11.97;;;1.90;;
22034;SDS011;11181;51.002;4.356;2023-08-06T08:10:50;7.77;;;1.80;;
22034;SDS011;11181;51.002;4.356;2023-08-06T08:13:18;11.00;;;1.73;;
22034;SDS011;11181;51.002;4.356;2023-08-06T08:15:45;6.77;;;2.73;;
22034;SDS011;11181;51.002;4.356;2023-08-06T08:18:12;10.30;;;1.97;;
22034;SDS011;11181;51.002;4.356;2023-08-06T08:20:39;4.30;;;1.27;;
22034;SDS011;11181;51.002;4.356;2023-08-06T08:23:06;4.67;;;1.77;;
22034;SDS011;11181;51.002;4.356;2023-08-06T08:25:33;3.27;;;1.20;;
22034;SDS011;11181;51.002;4.356;2023-08-06T08:28:00;10.23;;;2.27;;
22034;SDS011;11181;51.002;4.356;2023-08-06T08:30:28;6.97;;;1.80;;
22034;SDS011;11181;51.002;4.356;2023-08-06T08:32:55;6.17;;;2.03;;
22034;SDS011;11181;51.002;4.356;2023-08-06T08:35:22;10.07;;;2.60;;
22034;SDS011;11181;51.002;4.356;2023-08-06T08:37:49;5.90;;;1.60;;
22034;SDS011;11181;51.002;4.356;2023-08-06T08:40:16;3.77;;;1.10;;
22034;SDS011;11181;51.002;4.356;2023-08-06T08:42:43;8.67;;;2.03;;
22034;SDS011;11181;51.002;4.356;2023-08-06T08:45:11;8.30;;;1.60;;
22034;SDS011;11181;51.002;4.356;2023-08-06T08:47:41;4.53;;;1.40;;
22034;SDS011;11181;51.002;4.356;2023-08-06T08:50:09;4.57;;;1.57;;
22034;SDS011;11181;51.002;4.356;2023-08-06T08:52:36;11.53;;;1.97;;
22034;SDS011;11181;51.002;4.356;2023-08-06T08:55:05;8.83;;;1.60;;
22034;SDS011;11181;51.002;4.356;2023-08-06T08:57:34;6.30;;;1.50;;
22034;SDS011;11181;51.002;4.356;2023-08-06T09:00:01;5.40;;;1.97;;
22034;SDS011;11181;51.002;4.356;2023-08-06T09:02:28;6.43;;;2.03;;
22034;SDS011;11181;51.002;4.356;2023-08-06T09:04:59;4.53;;;1.33;;
22034;SDS011;11181;51.002;4.356;2023-08-06T09:07:28;8.00;;;1.73;;
22034;SDS011;11181;51.002;4.356;2023-08-06T09:09:59;9.83;;;1.97;;
22034;SDS011;11181;51.002;4.356;2023-08-06T09:12:30;6.13;;;1.80;;
22034;SDS011;11181;51.002;4.356;2023-08-06T09:14:57;4.87;;;1.50;;
22034;SDS011;11181;51.002;4.356;2023-08-06T09:17:23;11.27;;;2.20;;
22034;SDS011;11181;51.002;4.356;2023-08-06T09:19:50;13.50;;;1.93;;
22034;SDS011;11181;51.002;4.356;2023-08-06T09:22:19;11.67;;;2.33;;
22034;SDS011;11181;51.002;4.356;2023-08-06T09:24:46;3.53;;;1.40;;
22034;SDS011;11181;51.002;4.356;2023-08-06T09:27:13;7.70;;;2.03;;
22034;SDS011;11181;51.002;4.356;2023-08-06T09:29:41;7.33;;;2.33;;
22034;SDS011;11181;51.002;4.356;2023-08-06T09:32:10;5.70;;;1.77;;
22034;SDS011;11181;51.002;4.356;2023-08-06T09:34:38;6.77;;;1.70;;
22034;SDS011;11181;51.002;4.356;2023-08-06T09:37:05;8.67;;;2.57;;
22034;SDS011;11181;51.002;4.356;2023-08-06T09:39:35;6.77;;;2.17;;
22034;SDS011;11181;51.002;4.356;2023-08-06T09:42:04;6.30;;;1.80;;
22034;SDS011;11181;51.002;4.356;2023-08-06T09:44:32;8.73;;;2.10;;
22034;SDS011;11181;51.002;4.356;2023-08-06T09:47:00;7.67;;;1.93;;
22034;SDS011;11181;51.002;4.356;2023-08-06T09:49:28;5.07;;;1.50;;
22034;SDS011;11181;51.002;4.356;2023-08-06T09:52:06;8.37;;;1.77;;
22034;SDS011;11181;51.002;4.356;2023-08-06T09:54:38;4.97;;;1.80;;
22034;SDS011;11181;51.002;4.356;2023-08-06T09:57:05;4.33;;;1.97;;
22034;SDS011;11181;51.002;4.356;2023-08-06T09:59:32;6.30;;;2.43;;
22034;SDS011;11181;51.002;4.356;2023-08-06T10:02:00;7.03;;;2.13;;
22034;SDS011;11181;51.002;4.356;2023-08-06T10:04:30;7.63;;;2.13;;
22034;SDS011;11181;51.002;4.356;2023-08-06T10:06:57;13.00;;;2.10;;
22034;SDS011;11181;51.002;4.356;2023-08-06T10:09:25;4.83;;;1.80;;
22034;SDS011;11181;51.002;4.356;2023-08-06T10:11:53;6.53;;;2.03;;
22034;SDS011;11181;51.002;4.356;2023-08-06T10:14:25;8.03;;;2.33;;
22034;SDS011;11181;51.002;4.356;2023-08-06T10:16:55;4.47;;;2.07;;
22034;SDS011;11181;51.002;4.356;2023-08-06T10:19:23;8.93;;;2.33;;
22034;SDS011;11181;51.002;4.356;2023-08-06T10:22:11;11.50;;;1.87;;
22034;SDS011;11181;51.002;4.356;2023-08-06T10:24:45;5.43;;;1.67;;
22034;SDS011;11181;51.002;4.356;2023-08-06T10:27:14;7.80;;;1.60;;
22034;SDS011;11181;51.002;4.356;2023-08-06T10:29:47;5.97;;;1.40;;
22034;SDS011;11181;51.002;4.356;2023-08-06T10:32:14;8.87;;;2.17;;
22034;SDS011;11181;51.002;4.356;2023-08-06T10:34:55;6.57;;;2.00;;
22034;SDS011;11181;51.002;4.356;2023-08-06T10:37:23;5.87;;;2.33;;
22034;SDS011;11181;51.002;4.356;2023-08-06T10:39:51;7.00;;;2.53;;
22034;SDS011;11181;51.002;4.356;2023-08-06T10:42:23;6.27;;;1.83;;
22034;SDS011;11181;51.002;4.356;2023-08-06T10:45:12;5.33;;;1.70;;
22034;SDS011;11181;51.002;4.356;2023-08-06T10:47:41;7.13;;;2.90;;
22034;SDS011;11181;51.002;4.356;2023-08-06T10:50:10;6.53;;;1.70;;
22034;SDS011;11181;51.002;4.356;2023-08-06T10:52:38;5.67;;;2.13;;
22034;SDS011;11181;51.002;4.356;2023-08-06T10:55:05;3.70;;;1.10;;
22034;SDS011;11181;51.002;4.356;2023-08-06T10:57:35;5.30;;;1.90;;
22034;SDS011;11181;51.002;4.356;2023-08-06T11:00:04;4.00;;;1.80;;
22034;SDS011;11181;51.002;4.356;2023-08-06T11:02:33;8.73;;;1.60;;
22034;SDS011;11181;51.002;4.356;2023-08-06T11:05:04;8.50;;;2.27;;
22034;SDS011;11181;51.002;4.356;2023-08-06T11:07:32;5.90;;;1.67;;
22034;SDS011;11181;51.002;4.356;2023-08-06T11:10:03;7.93;;;2.57;;
22034;SDS011;11181;51.002;4.356;2023-08-06T11:12:31;6.80;;;1.77;;
22034;SDS011;11181;51.002;4.356;2023-08-06T11:14:59;6.30;;;1.40;;
22034;SDS011;11181;51.002;4.356;2023-08-06T11:17:28;3.57;;;2.07;;
22034;SDS011;11181;51.002;4.356;2023-08-06T11:19:56;9.00;;;2.47;;
22034;SDS011;11181;51.002;4.356;2023-08-06T11:22:26;5.33;;;2.10;;
22034;SDS011;11181;51.002;4.356;2023-08-06T11:24:53;6.03;;;1.43;;
22034;SDS011;11181;51.002;4.356;2023-08-06T11:27:21;6.47;;;1.87;;
22034;SDS011;11181;51.002;4.356;2023-08-06T11:29:48;5.53;;;2.00;;
22034;SDS011;11181;51.002;4.356;2023-08-06T11:32:16;3.57;;;1.60;;
22034;SDS011;11181;51.002;4.356;2023-08-06T11:34:43;6.93;;;2.23;;
22034;SDS011;11181;51.002;4.356;2023-08-06T11:37:10;5.53;;;2.00;;
22034;SDS011;11181;51.002;4.356;2023-08-06T11:39:38;6.80;;;2.03;;
22034;SDS011;11181;51.002;4.356;2023-08-06T11:42:05;3.40;;;1.73;;
22034;SDS011;11181;51.002;4.356;2023-08-06T11:44:33;8.00;;;2.50;;
22034;SDS011;11181;51.002;4.356;2023-08-06T11:47:02;9.30;;;2.07;;
22034;SDS011;11181;51.002;4.356;2023-08-06T11:49:39;8.63;;;2.23;;
22034;SDS011;11181;51.002;4.356;2023-08-06T11:52:18;6.70;;;2.13;;
22034;SDS011;11181;51.002;4.356;2023-08-06T11:54:48;4.57;;;1.43;;
22034;SDS011;11181;51.002;4.356;2023-08-06T11:57:28;10.40;;;1.53;;
22034;SDS011;11181;51.002;4.356;2023-08-06T11:59:58;5.67;;;1.50;;
22034;SDS011;11181;51.002;4.356;2023-08-06T12:02:28;6.93;;;1.70;;
22034;SDS011;11181;51.002;4.356;2023-08-06T12:05:03;5.27;;;2.43;;
22034;SDS011;11181;51.002;4.356;2023-08-06T12:07:36;3.90;;;1.30;;
22034;SDS011;11181;51.002;4.356;2023-08-06T12:10:04;7.03;;;1.70;;
22034;SDS011;11181;51.002;4.356;2023-08-06T12:12:32;7.43;;;2.33;;
22034;SDS011;11181;51.002;4.356;2023-08-06T12:14:59;6.23;;;1.37;;
22034;SDS011;11181;51.002;4.356;2023-08-06T12:17:26;5.23;;;1.70;;
22034;SDS011;11181;51.002;4.356;2023-08-06T12:19:53;3.10;;;1.20;;
22034;SDS011;11181;51.002;4.356;2023-08-06T12:22:22;4.93;;;1.70;;
22034;SDS011;11181;51.002;4.356;2023-08-06T12:24:48;8.43;;;1.83;;
22034;SDS011;11181;51.002;4.356;2023-08-06T12:27:15;8.60;;;1.90;;
22034;SDS011;11181;51.002;4.356;2023-08-06T12:29:43;8.13;;;1.83;;
22034;SDS011;11181;51.002;4.356;2023-08-06T12:32:11;5.07;;;2.10;;
22034;SDS011;11181;51.002;4.356;2023-08-06T12:34:39;9.83;;;1.60;;
22034;SDS011;11181;51.002;4.356;2023-08-06T12:37:06;7.60;;;1.90;;
22034;SDS011;11181;51.002;4.356;2023-08-06T12:39:35;9.90;;;1.67;;
22034;SDS011;11181;51.002;4.356;2023-08-06T12:42:03;15.50;;;1.83;;
22034;SDS011;11181;51.002;4.356;2023-08-06T12:44:31;8.10;;;2.17;;
22034;SDS011;11181;51.002;4.356;2023-08-06T12:46:58;9.73;;;3.23;;
22034;SDS011;11181;51.002;4.356;2023-08-06T12:49:25;3.97;;;1.87;;
22034;SDS011;11181;51.002;4.356;2023-08-06T12:51:53;8.97;;;2.27;;
22034;SDS011;11181;51.002;4.356;2023-08-06T12:54:21;6.97;;;1.83;;
22034;SDS011;11181;51.002;4.356;2023-08-06T12:56:50;7.00;;;2.00;;
22034;SDS011;11181;51.002;4.356;2023-08-06T12:59:17;7.60;;;1.63;;
22034;SDS011;11181;51.002;4.356;2023-08-06T13:01:44;12.53;;;1.90;;
22034;SDS011;11181;51.002;4.356;2023-08-06T13:04:13;9.87;;;1.77;;
22034;SDS011;11181;51.002;4.356;2023-08-06T13:06:40;9.43;;;1.70;;
22034;SDS011;11181;51.002;4.356;2023-08-06T13:09:07;8.33;;;2.83;;
22034;SDS011;11181;51.002;4.356;2023-08-06T13:11:34;6.07;;;2.07;;
22034;SDS011;11181;51.002;4.356;2023-08-06T13:14:07;8.30;;;1.70;;
22034;SDS011;11181;51.002;4.356;2023-08-06T13:16:35;9.00;;;2.33;;
22034;SDS011;11181;51.002;4.356;2023-08-06T13:19:03;5.37;;;1.83;;
22034;SDS011;11181;51.002;4.356;2023-08-06T13:21:33;6.27;;;1.60;;
22034;SDS011;11181;51.002;4.356;2023-08-06T13:24:01;5.73;;;2.23;;
22034;SDS011;11181;51.002;4.356;2023-08-06T13:26:29;9.50;;;1.87;;
22034;SDS011;11181;51.002;4.356;2023-08-06T13:28:56;7.53;;;2.13;;
22034;SDS011;11181;51.002;4.356;2023-08-06T13:31:25;8.60;;;2.17;;
22034;SDS011;11181;51.002;4.356;2023-08-06T13:33:53;8.83;;;2.67;;
22034;SDS011;11181;51.002;4.356;2023-08-06T13:36:22;8.50;;;2.50;;
22034;SDS011;11181;51.002;4.356;2023-08-06T13:38:49;8.17;;;2.27;;
22034;SDS011;11181;51.002;4.356;2023-08-06T13:41:16;10.30;;;2.70;;
22034;SDS011;11181;51.002;4.356;2023-08-06T13:43:43;9.33;;;2.13;;
22034;SDS011;11181;51.002;4.356;2023-08-06T13:46:10;4.50;;;1.57;;
22034;SDS011;11181;51.002;4.356;2023-08-06T13:48:43;10.57;;;1.93;;
22034;SDS011;11181;51.002;4.356;2023-08-06T13:51:10;8.17;;;2.10;;
22034;SDS011;11181;51.002;4.356;2023-08-06T13:53:37;8.93;;;2.10;;
22034;SDS011;11181;51.002;4.356;2023-08-06T13:56:04;6.93;;;1.60;;
22034;SDS011;11181;51.002;4.356;2023-08-06T13:58:31;4.77;;;1.60;;
22034;SDS011;11181;51.002;4.356;2023-08-06T14:00:58;7.20;;;2.10;;
22034;SDS011;11181;51.002;4.356;2023-08-06T14:03:25;11.33;;;2.30;;
22034;SDS011;11181;51.002;4.356;2023-08-06T14:05:54;9.77;;;2.10;;
22034;SDS011;11181;51.002;4.356;2023-08-06T14:08:21;11.43;;;2.03;;
22034;SDS011;11181;51.002;4.356;2023-08-06T14:10:49;16.33;;;2.23;;
22034;SDS011;11181;51.002;4.356;2023-08-06T14:13:16;4.93;;;1.70;;
22034;SDS011;11181;51.002;4.356;2023-08-06T14:15:43;9.73;;;2.00;;
22034;SDS011;11181;51.002;4.356;2023-08-06T14:18:12;10.30;;;3.60;;
22034;SDS011;11181;51.002;4.356;2023-08-06T14:20:38;8.30;;;2.10;;
22034;SDS011;11181;51.002;4.356;2023-08-06T14:23:07;9.07;;;2.17;;
22034;SDS011;11181;51.002;4.356;2023-08-06T14:25:34;6.90;;;2.10;;
22034;SDS011;11181;51.002;4.356;2023-08-06T14:28:01;7.70;;;2.50;;
22034;SDS011;11181;51.002;4.356;2023-08-06T14:30:28;8.50;;;2.23;;
22034;SDS011;11181;51.002;4.356;2023-08-06T14:32:55;9.07;;;3.13;;
22034;SDS011;11181;51.002;4.356;2023-08-06T14:35:22;4.73;;;1.77;;
22034;SDS011;11181;51.002;4.356;2023-08-06T14:37:49;12.17;;;2.60;;
22034;SDS011;11181;51.002;4.356;2023-08-06T14:40:17;5.97;;;2.20;;
22034;SDS011;11181;51.002;4.356;2023-08-06T14:42:44;7.67;;;1.90;;
22034;SDS011;11181;51.002;4.356;2023-08-06T14:45:11;7.63;;;1.93;;
22034;SDS011;11181;51.002;4.356;2023-08-06T14:47:39;7.43;;;2.50;;
22034;SDS011;11181;51.002;4.356;2023-08-06T14:50:06;5.57;;;1.53;;